sensor_id;sensor_type;location;lat;lon;timestamp;temperature;humidity
20973;DHT22;10645;52.370;13.314;2023-06-14T00:02:10;12.00;99.90
20973;DHT22;10645;52.370;13.314;2023-06-14T00:04:36;11.90;99.90
20973;DHT22;10645;52.370;13.314;2023-06-14T00:07:03;11.90;99.90
20973;DHT22;10645;52.370;13.314;2023-06-14T00:09:29;11.90;99.90
20973;DHT22;10645;52.370;13.314;2023-06-14T00:11:55;11.80;99.90
20973;DHT22;10645;52.370;13.314;2023-06-14T00:14:22;11.70;99.90
20973;DHT22;10645;52.370;13.314;2023-06-14T00:16:48;11.60;99.90
20973;DHT22;10645;52.370;13.314;2023-06-14T00:19:14;11.50;99.90
20973;DHT22;10645;52.370;13.314;2023-06-14T00:21:40;11.50;99.90
20973;DHT22;10645;52.370;13.314;2023-06-14T00:24:07;11.50;99.90
20973;DHT22;10645;52.370;13.314;2023-06-14T00:26:33;11.50;99.90
20973;DHT22;10645;52.370;13.314;2023-06-14T00:28:59;11.50;99.90
20973;DHT22;10645;52.370;13.314;2023-06-14T00:31:26;11.50;99.90
20973;DHT22;10645;52.370;13.314;2023-06-14T00:33:54;11.50;99.90
20973;DHT22;10645;52.370;13.314;2023-06-14T00:36:20;11.40;99.90
20973;DHT22;10645;52.370;13.314;2023-06-14T00:38:46;11.40;99.90
20973;DHT22;10645;52.370;13.314;2023-06-14T00:41:12;11.40;99.90
20973;DHT22;10645;52.370;13.314;2023-06-14T00:43:38;11.30;99.90
20973;DHT22;10645;52.370;13.314;2023-06-14T00:46:04;11.30;99.90
20973;DHT22;10645;52.370;13.314;2023-06-14T00:48:30;11.30;99.90
20973;DHT22;10645;52.370;13.314;2023-06-14T00:50:58;11.20;99.90
20973;DHT22;10645;52.370;13.314;2023-06-14T00:53:28;11.20;99.90
20973;DHT22;10645;52.370;13.314;2023-06-14T00:55:55;11.20;99.90
20973;DHT22;10645;52.370;13.314;2023-06-14T00:58:22;11.20;99.90
20973;DHT22;10645;52.370;13.314;2023-06-14T01:00:48;11.20;99.90
20973;DHT22;10645;52.370;13.314;2023-06-14T01:03:14;11.10;99.90
20973;DHT22;10645;52.370;13.314;2023-06-14T01:05:45;11.20;99.90
20973;DHT22;10645;52.370;13.314;2023-06-14T01:08:39;11.20;99.90
20973;DHT22;10645;52.370;13.314;2023-06-14T01:11:18;11.20;99.90
20973;DHT22;10645;52.370;13.314;2023-06-14T01:13:46;11.20;99.90
20973;DHT22;10645;52.370;13.314;2023-06-14T01:16:14;11.20;99.90
20973;DHT22;10645;52.370;13.314;2023-06-14T01:18:40;11.20;99.90
20973;DHT22;10645;52.370;13.314;2023-06-14T01:21:20;11.20;99.90
20973;DHT22;10645;52.370;13.314;2023-06-14T01:23:48;11.20;99.90
20973;DHT22;10645;52.370;13.314;2023-06-14T01:26:22;11.20;99.90
20973;DHT22;10645;52.370;13.314;2023-06-14T01:28:49;11.30;99.90
20973;DHT22;10645;52.370;13.314;2023-06-14T01:31:20;11.30;99.90
20973;DHT22;10645;52.370;13.314;2023-06-14T01:33:49;11.30;99.90
20973;DHT22;10645;52.370;13.314;2023-06-14T01:36:19;11.30;99.90
20973;DHT22;10645;52.370;13.314;2023-06-14T01:38:47;11.30;99.90
20973;DHT22;10645;52.370;13.314;2023-06-14T01:41:20;11.30;99.90
20973;DHT22;10645;52.370;13.314;2023-06-14T01:43:48;11.30;99.90
20973;DHT22;10645;52.370;13.314;2023-06-14T01:46:15;11.20;99.90
20973;DHT22;10645;52.370;13.314;2023-06-14T01:48:42;11.10;99.90
20973;DHT22;10645;52.370;13.314;2023-06-14T01:51:08;11.10;99.90
20973;DHT22;10645;52.370;13.314;2023-06-14T01:53:34;11.00;99.90
20973;DHT22;10645;52.370;13.314;2023-06-14T01:56:00;11.10;99.90
20973;DHT22;10645;52.370;13.314;2023-06-14T01:58:30;11.00;99.90
20973;DHT22;10645;52.370;13.314;2023-06-14T02:00:58;11.00;99.90
20973;DHT22;10645;52.370;13.314;2023-06-14T02:03:27;10.90;99.90
20973;DHT22;10645;52.370;13.314;2023-06-14T02:05:53;10.90;99.90
20973;DHT22;10645;52.370;13.314;2023-06-14T02:08:21;10.70;99.90
20973;DHT22;10645;52.370;13.314;2023-06-14T02:10:48;10.70;99.90
20973;DHT22;10645;52.370;13.314;2023-06-14T02:13:14;10.70;99.90
20973;DHT22;10645;52.370;13.314;2023-06-14T02:15:40;10.60;99.90
20973;DHT22;10645;52.370;13.314;2023-06-14T02:18:09;10.60;99.90
20973;DHT22;10645;52.370;13.314;2023-06-14T02:20:36;10.60;99.90
20973;DHT22;10645;52.370;13.314;2023-06-14T02:23:02;10.50;99.90
20973;DHT22;10645;52.370;13.314;2023-06-14T02:25:31;10.50;99.90
20973;DHT22;10645;52.370;13.314;2023-06-14T02:27:57;10.50;99.90
20973;DHT22;10645;52.370;13.314;2023-06-14T02:30:23;10.50;99.90
20973;DHT22;10645;52.370;13.314;2023-06-14T02:32:49;10.60;99.90
20973;DHT22;10645;52.370;13.314;2023-06-14T02:35:17;10.60;99.90
20973;DHT22;10645;52.370;13.314;2023-06-14T02:37:43;10.70;99.90
20973;DHT22;10645;52.370;13.314;2023-06-14T02:40:09;10.70;99.90
20973;DHT22;10645;52.370;13.314;2023-06-14T02:42:35;10.70;99.90
20973;DHT22;10645;52.370;13.314;2023-06-14T02:45:04;10.70;99.90
20973;DHT22;10645;52.370;13.314;2023-06-14T02:47:30;10.80;99.90
20973;DHT22;10645;52.370;13.314;2023-06-14T02:49:56;10.70;99.90
20973;DHT22;10645;52.370;13.314;2023-06-14T02:52:22;10.70;99.90
20973;DHT22;10645;52.370;13.314;2023-06-14T02:54:51;10.70;99.90
20973;DHT22;10645;52.370;13.314;2023-06-14T02:57:17;10.70;99.90
20973;DHT22;10645;52.370;13.314;2023-06-14T02:59:43;10.70;99.90
20973;DHT22;10645;52.370;13.314;2023-06-14T03:02:09;10.70;99.90
20973;DHT22;10645;52.370;13.314;2023-06-14T03:04:35;10.70;99.90
20973;DHT22;10645;52.370;13.314;2023-06-14T03:07:04;10.70;99.90
20973;DHT22;10645;52.370;13.314;2023-06-14T03:09:40;10.70;99.90
20973;DHT22;10645;52.370;13.314;2023-06-14T03:12:08;10.60;99.90
20973;DHT22;10645;52.370;13.314;2023-06-14T03:14:35;10.60;99.90
20973;DHT22;10645;52.370;13.314;2023-06-14T03:17:03;10.60;99.90
20973;DHT22;10645;52.370;13.314;2023-06-14T03:19:31;10.60;99.90
20973;DHT22;10645;52.370;13.314;2023-06-14T03:21:58;10.60;99.90
20973;DHT22;10645;52.370;13.314;2023-06-14T03:24:25;10.70;99.90
20973;DHT22;10645;52.370;13.314;2023-06-14T03:26:55;10.60;99.90
20973;DHT22;10645;52.370;13.314;2023-06-14T03:29:23;10.60;99.90
20973;DHT22;10645;52.370;13.314;2023-06-14T03:31:57;10.60;99.90
20973;DHT22;10645;52.370;13.314;2023-06-14T03:34:25;10.70;99.90
20973;DHT22;10645;52.370;13.314;2023-06-14T03:36:51;10.80;99.90
20973;DHT22;10645;52.370;13.314;2023-06-14T03:39:17;10.80;99.90
20973;DHT22;10645;52.370;13.314;2023-06-14T03:41:44;10.80;99.90
20973;DHT22;10645;52.370;13.314;2023-06-14T03:44:10;10.90;99.90
20973;DHT22;10645;52.370;13.314;2023-06-14T03:46:36;10.90;99.90
20973;DHT22;10645;52.370;13.314;2023-06-14T03:49:02;10.90;99.90
20973;DHT22;10645;52.370;13.314;2023-06-14T03:51:29;10.90;99.90
20973;DHT22;10645;52.370;13.314;2023-06-14T03:53:55;11.00;99.90
20973;DHT22;10645;52.370;13.314;2023-06-14T03:56:21;11.00;99.90
20973;DHT22;10645;52.370;13.314;2023-06-14T03:58:47;11.10;99.90
20973;DHT22;10645;52.370;13.314;2023-06-14T04:01:14;11.20;99.90
20973;DHT22;10645;52.370;13.314;2023-06-14T04:03:40;11.30;99.90
20973;DHT22;10645;52.370;13.314;2023-06-14T04:06:06;11.30;99.90
20973;DHT22;10645;52.370;13.314;2023-06-14T04:08:33;11.40;99.90
20973;DHT22;10645;52.370;13.314;2023-06-14T04:11:00;11.40;99.90
20973;DHT22;10645;52.370;13.314;2023-06-14T04:13:27;11.50;99.90
20973;DHT22;10645;52.370;13.314;2023-06-14T04:15:53;11.40;99.90
20973;DHT22;10645;52.370;13.314;2023-06-14T04:18:24;11.40;99.90
20973;DHT22;10645;52.370;13.314;2023-06-14T04:20:51;11.40;99.90
20973;DHT22;10645;52.370;13.314;2023-06-14T04:23:19;11.40;99.90
20973;DHT22;10645;52.370;13.314;2023-06-14T04:25:46;11.40;99.90
20973;DHT22;10645;52.370;13.314;2023-06-14T04:28:13;11.50;99.90
20973;DHT22;10645;52.370;13.314;2023-06-14T04:30:42;11.60;99.90
20973;DHT22;10645;52.370;13.314;2023-06-14T04:33:08;11.70;99.90
20973;DHT22;10645;52.370;13.314;2023-06-14T04:35:36;11.80;99.90
20973;DHT22;10645;52.370;13.314;2023-06-14T04:38:03;12.00;99.90
20973;DHT22;10645;52.370;13.314;2023-06-14T04:40:36;12.30;99.90
20973;DHT22;10645;52.370;13.314;2023-06-14T04:43:09;12.40;99.90
20973;DHT22;10645;52.370;13.314;2023-06-14T04:45:38;12.50;99.90
20973;DHT22;10645;52.370;13.314;2023-06-14T04:48:06;12.60;99.90
20973;DHT22;10645;52.370;13.314;2023-06-14T04:50:32;12.70;99.90
20973;DHT22;10645;52.370;13.314;2023-06-14T04:52:59;12.80;99.90
20973;DHT22;10645;52.370;13.314;2023-06-14T04:55:26;12.80;99.90
20973;DHT22;10645;52.370;13.314;2023-06-14T04:57:53;12.80;99.90
20973;DHT22;10645;52.370;13.314;2023-06-14T05:00:22;13.00;99.90
20973;DHT22;10645;52.370;13.314;2023-06-14T05:02:49;13.20;99.90
20973;DHT22;10645;52.370;13.314;2023-06-14T05:05:17;13.40;99.90
20973;DHT22;10645;52.370;13.314;2023-06-14T05:07:43;13.60;99.90
20973;DHT22;10645;52.370;13.314;2023-06-14T05:10:09;13.80;99.90
20973;DHT22;10645;52.370;13.314;2023-06-14T05:12:36;13.90;99.90
20973;DHT22;10645;52.370;13.314;2023-06-14T05:15:04;14.00;99.90
20973;DHT22;10645;52.370;13.314;2023-06-14T05:17:30;14.10;99.90
20973;DHT22;10645;52.370;13.314;2023-06-14T05:19:56;14.20;99.90
20973;DHT22;10645;52.370;13.314;2023-06-14T05:22:22;14.40;99.90
20973;DHT22;10645;52.370;13.314;2023-06-14T05:24:48;14.50;99.90
20973;DHT22;10645;52.370;13.314;2023-06-14T05:27:16;14.50;99.90
20973;DHT22;10645;52.370;13.314;2023-06-14T05:29:42;14.50;99.90
20973;DHT22;10645;52.370;13.314;2023-06-14T05:32:08;14.50;99.90
20973;DHT22;10645;52.370;13.314;2023-06-14T05:34:34;14.70;99.90
20973;DHT22;10645;52.370;13.314;2023-06-14T05:37:00;14.90;99.90
20973;DHT22;10645;52.370;13.314;2023-06-14T05:39:26;15.00;99.90
20973;DHT22;10645;52.370;13.314;2023-06-14T05:41:52;15.20;99.90
20973;DHT22;10645;52.370;13.314;2023-06-14T05:44:18;15.40;99.90
20973;DHT22;10645;52.370;13.314;2023-06-14T05:46:45;15.50;99.90
20973;DHT22;10645;52.370;13.314;2023-06-14T05:49:12;15.70;99.90
20973;DHT22;10645;52.370;13.314;2023-06-14T05:51:38;15.80;99.90
20973;DHT22;10645;52.370;13.314;2023-06-14T05:54:04;16.00;99.90
20973;DHT22;10645;52.370;13.314;2023-06-14T05:56:30;16.10;99.90
20973;DHT22;10645;52.370;13.314;2023-06-14T05:58:57;16.20;99.90
20973;DHT22;10645;52.370;13.314;2023-06-14T06:01:23;16.30;99.90
20973;DHT22;10645;52.370;13.314;2023-06-14T06:03:49;16.50;99.90
20973;DHT22;10645;52.370;13.314;2023-06-14T06:06:15;16.50;99.90
20973;DHT22;10645;52.370;13.314;2023-06-14T06:08:42;16.40;99.90
20973;DHT22;10645;52.370;13.314;2023-06-14T06:11:08;16.40;99.90
20973;DHT22;10645;52.370;13.314;2023-06-14T06:13:35;16.40;99.90
20973;DHT22;10645;52.370;13.314;2023-06-14T06:16:02;16.50;99.90
20973;DHT22;10645;52.370;13.314;2023-06-14T06:18:28;16.60;99.90
20973;DHT22;10645;52.370;13.314;2023-06-14T06:20:54;16.60;99.90
20973;DHT22;10645;52.370;13.314;2023-06-14T06:23:21;16.60;99.90
20973;DHT22;10645;52.370;13.314;2023-06-14T06:25:47;16.50;99.90
20973;DHT22;10645;52.370;13.314;2023-06-14T06:28:13;16.50;99.90
20973;DHT22;10645;52.370;13.314;2023-06-14T06:30:39;16.40;99.90
20973;DHT22;10645;52.370;13.314;2023-06-14T06:33:05;16.30;99.90
20973;DHT22;10645;52.370;13.314;2023-06-14T06:35:31;16.30;99.90
20973;DHT22;10645;52.370;13.314;2023-06-14T06:37:59;16.30;99.90
20973;DHT22;10645;52.370;13.314;2023-06-14T06:40:26;16.20;99.90
20973;DHT22;10645;52.370;13.314;2023-06-14T06:42:52;16.20;99.90
20973;DHT22;10645;52.370;13.314;2023-06-14T06:45:19;16.10;99.90
20973;DHT22;10645;52.370;13.314;2023-06-14T06:47:45;16.10;99.90
20973;DHT22;10645;52.370;13.314;2023-06-14T06:50:12;16.10;99.90
20973;DHT22;10645;52.370;13.314;2023-06-14T06:52:38;16.10;99.90
20973;DHT22;10645;52.370;13.314;2023-06-14T06:55:04;16.10;99.90
20973;DHT22;10645;52.370;13.314;2023-06-14T06:57:30;16.20;99.90
20973;DHT22;10645;52.370;13.314;2023-06-14T06:59:57;16.30;99.90
20973;DHT22;10645;52.370;13.314;2023-06-14T07:02:23;16.40;99.90
20973;DHT22;10645;52.370;13.314;2023-06-14T07:04:49;16.50;99.90
20973;DHT22;10645;52.370;13.314;2023-06-14T07:07:15;16.60;99.90
20973;DHT22;10645;52.370;13.314;2023-06-14T07:09:41;16.70;99.90
20973;DHT22;10645;52.370;13.314;2023-06-14T07:12:08;17.00;99.90
20973;DHT22;10645;52.370;13.314;2023-06-14T07:14:34;17.10;99.90
20973;DHT22;10645;52.370;13.314;2023-06-14T07:17:00;17.30;99.90
20973;DHT22;10645;52.370;13.314;2023-06-14T07:19:26;17.30;99.90
20973;DHT22;10645;52.370;13.314;2023-06-14T07:21:52;17.60;99.90
20973;DHT22;10645;52.370;13.314;2023-06-14T07:24:20;17.70;99.90
20973;DHT22;10645;52.370;13.314;2023-06-14T07:26:47;18.00;99.90
20973;DHT22;10645;52.370;13.314;2023-06-14T07:29:14;18.20;99.90
20973;DHT22;10645;52.370;13.314;2023-06-14T07:31:40;18.50;99.90
20973;DHT22;10645;52.370;13.314;2023-06-14T07:34:06;18.90;99.90
20973;DHT22;10645;52.370;13.314;2023-06-14T07:36:32;19.40;99.90
20973;DHT22;10645;52.370;13.314;2023-06-14T07:38:58;19.70;99.90
20973;DHT22;10645;52.370;13.314;2023-06-14T07:41:25;19.80;99.90
20973;DHT22;10645;52.370;13.314;2023-06-14T07:43:51;19.90;99.90
20973;DHT22;10645;52.370;13.314;2023-06-14T07:46:17;19.60;99.90
20973;DHT22;10645;52.370;13.314;2023-06-14T07:48:43;19.40;99.90
20973;DHT22;10645;52.370;13.314;2023-06-14T07:51:09;19.20;99.90
20973;DHT22;10645;52.370;13.314;2023-06-14T07:53:36;19.20;99.90
20973;DHT22;10645;52.370;13.314;2023-06-14T07:56:02;19.20;99.90
20973;DHT22;10645;52.370;13.314;2023-06-14T07:58:28;19.10;99.90
20973;DHT22;10645;52.370;13.314;2023-06-14T08:00:55;19.10;99.90
20973;DHT22;10645;52.370;13.314;2023-06-14T08:03:21;19.20;99.90
20973;DHT22;10645;52.370;13.314;2023-06-14T08:05:48;19.20;99.90
20973;DHT22;10645;52.370;13.314;2023-06-14T08:08:14;19.30;99.90
20973;DHT22;10645;52.370;13.314;2023-06-14T08:10:40;19.20;99.90
20973;DHT22;10645;52.370;13.314;2023-06-14T08:13:06;19.00;99.90
20973;DHT22;10645;52.370;13.314;2023-06-14T08:15:32;19.20;99.90
20973;DHT22;10645;52.370;13.314;2023-06-14T08:17:59;19.20;99.90
20973;DHT22;10645;52.370;13.314;2023-06-14T08:20:26;19.30;99.90
20973;DHT22;10645;52.370;13.314;2023-06-14T08:22:52;19.20;99.90
20973;DHT22;10645;52.370;13.314;2023-06-14T08:25:22;19.10;99.90
20973;DHT22;10645;52.370;13.314;2023-06-14T08:27:48;19.10;99.90
20973;DHT22;10645;52.370;13.314;2023-06-14T08:30:15;18.80;99.90
20973;DHT22;10645;52.370;13.314;2023-06-14T08:32:43;19.00;99.90
20973;DHT22;10645;52.370;13.314;2023-06-14T08:35:09;19.20;99.90
20973;DHT22;10645;52.370;13.314;2023-06-14T08:37:41;19.30;99.90
20973;DHT22;10645;52.370;13.314;2023-06-14T08:40:19;19.30;99.90
20973;DHT22;10645;52.370;13.314;2023-06-14T08:42:50;19.30;99.90
20973;DHT22;10645;52.370;13.314;2023-06-14T08:45:16;19.40;99.90
20973;DHT22;10645;52.370;13.314;2023-06-14T08:47:42;19.60;99.90
20973;DHT22;10645;52.370;13.314;2023-06-14T08:50:09;19.80;99.90
20973;DHT22;10645;52.370;13.314;2023-06-14T08:52:37;19.80;99.90
20973;DHT22;10645;52.370;13.314;2023-06-14T08:55:07;19.90;99.90
20973;DHT22;10645;52.370;13.314;2023-06-14T08:57:37;20.00;99.90
20973;DHT22;10645;52.370;13.314;2023-06-14T09:00:04;20.20;99.90
20973;DHT22;10645;52.370;13.314;2023-06-14T09:02:38;20.60;99.90
20973;DHT22;10645;52.370;13.314;2023-06-14T09:05:10;21.10;99.90
20973;DHT22;10645;52.370;13.314;2023-06-14T09:07:37;21.40;99.90
20973;DHT22;10645;52.370;13.314;2023-06-14T09:10:11;21.50;99.90
20973;DHT22;10645;52.370;13.314;2023-06-14T09:12:37;21.70;99.90
20973;DHT22;10645;52.370;13.314;2023-06-14T09:15:04;21.50;99.90
20973;DHT22;10645;52.370;13.314;2023-06-14T09:17:35;21.30;99.40
20973;DHT22;10645;52.370;13.314;2023-06-14T09:20:05;21.40;99.90
20973;DHT22;10645;52.370;13.314;2023-06-14T09:22:35;21.30;98.80
20973;DHT22;10645;52.370;13.314;2023-06-14T09:25:01;20.70;99.40
20973;DHT22;10645;52.370;13.314;2023-06-14T09:27:28;20.80;99.90
20973;DHT22;10645;52.370;13.314;2023-06-14T09:29:54;21.00;99.90
20973;DHT22;10645;52.370;13.314;2023-06-14T09:32:24;21.10;99.80
20973;DHT22;10645;52.370;13.314;2023-06-14T09:34:51;21.30;99.10
20973;DHT22;10645;52.370;13.314;2023-06-14T09:37:30;21.00;98.40
20973;DHT22;10645;52.370;13.314;2023-06-14T09:39:57;20.90;98.40
20973;DHT22;10645;52.370;13.314;2023-06-14T09:42:24;20.70;98.80
20973;DHT22;10645;52.370;13.314;2023-06-14T09:44:55;20.70;99.00
20973;DHT22;10645;52.370;13.314;2023-06-14T09:47:22;20.70;98.80
20973;DHT22;10645;52.370;13.314;2023-06-14T09:49:49;20.90;99.90
20973;DHT22;10645;52.370;13.314;2023-06-14T09:52:18;21.30;99.00
20973;DHT22;10645;52.370;13.314;2023-06-14T09:54:46;21.50;97.70
20973;DHT22;10645;52.370;13.314;2023-06-14T09:57:22;21.70;98.00
20973;DHT22;10645;52.370;13.314;2023-06-14T09:59:56;21.80;97.80
20973;DHT22;10645;52.370;13.314;2023-06-14T10:02:31;22.10;98.10
20973;DHT22;10645;52.370;13.314;2023-06-14T10:05:04;22.20;97.00
20973;DHT22;10645;52.370;13.314;2023-06-14T10:07:35;21.90;96.50
20973;DHT22;10645;52.370;13.314;2023-06-14T10:10:04;21.70;97.00
20973;DHT22;10645;52.370;13.314;2023-06-14T10:12:31;21.60;97.40
20973;DHT22;10645;52.370;13.314;2023-06-14T10:14:57;21.50;96.70
20973;DHT22;10645;52.370;13.314;2023-06-14T10:17:30;21.50;97.80
20973;DHT22;10645;52.370;13.314;2023-06-14T10:20:11;21.60;97.00
20973;DHT22;10645;52.370;13.314;2023-06-14T10:22:47;21.60;97.30
20973;DHT22;10645;52.370;13.314;2023-06-14T10:25:27;21.60;96.60
20973;DHT22;10645;52.370;13.314;2023-06-14T10:30:39;21.80;96.50
20973;DHT22;10645;52.370;13.314;2023-06-14T10:33:07;21.90;96.40
20973;DHT22;10645;52.370;13.314;2023-06-14T10:35:34;22.00;95.60
20973;DHT22;10645;52.370;13.314;2023-06-14T10:38:07;22.20;95.90
20973;DHT22;10645;52.370;13.314;2023-06-14T10:40:34;21.70;95.90
20973;DHT22;10645;52.370;13.314;2023-06-14T10:43:00;22.00;96.80
20973;DHT22;10645;52.370;13.314;2023-06-14T10:45:26;22.20;95.90
20973;DHT22;10645;52.370;13.314;2023-06-14T10:47:57;22.30;95.20
20973;DHT22;10645;52.370;13.314;2023-06-14T10:50:28;22.80;95.10
20973;DHT22;10645;52.370;13.314;2023-06-14T10:52:55;22.80;94.70
20973;DHT22;10645;52.370;13.314;2023-06-14T10:55:22;22.50;94.40
20973;DHT22;10645;52.370;13.314;2023-06-14T10:57:53;22.30;94.10
20973;DHT22;10645;52.370;13.314;2023-06-14T11:00:28;22.10;94.60
20973;DHT22;10645;52.370;13.314;2023-06-14T11:05:56;22.00;94.90
20973;DHT22;10645;52.370;13.314;2023-06-14T11:11:23;21.90;96.10
20973;DHT22;10645;52.370;13.314;2023-06-14T11:13:51;21.80;95.20
20973;DHT22;10645;52.370;13.314;2023-06-14T11:16:17;22.00;95.50
20973;DHT22;10645;52.370;13.314;2023-06-14T11:18:44;22.20;95.40
20973;DHT22;10645;52.370;13.314;2023-06-14T11:21:14;22.60;94.60
20973;DHT22;10645;52.370;13.314;2023-06-14T11:23:41;22.60;94.00
20973;DHT22;10645;52.370;13.314;2023-06-14T11:26:07;22.50;94.50
20973;DHT22;10645;52.370;13.314;2023-06-14T11:28:39;23.00;95.20
20973;DHT22;10645;52.370;13.314;2023-06-14T11:31:07;23.40;95.10
20973;DHT22;10645;52.370;13.314;2023-06-14T11:33:34;24.10;93.40
20973;DHT22;10645;52.370;13.314;2023-06-14T11:36:06;24.00;92.90
20973;DHT22;10645;52.370;13.314;2023-06-14T11:38:37;24.20;93.00
20973;DHT22;10645;52.370;13.314;2023-06-14T11:41:03;24.10;92.30
20973;DHT22;10645;52.370;13.314;2023-06-14T11:43:29;23.50;92.20
20973;DHT22;10645;52.370;13.314;2023-06-14T11:45:57;23.40;92.30
20973;DHT22;10645;52.370;13.314;2023-06-14T11:48:23;23.40;92.40
20973;DHT22;10645;52.370;13.314;2023-06-14T11:51:01;23.60;92.70
20973;DHT22;10645;52.370;13.314;2023-06-14T11:53:27;23.30;92.90
20973;DHT22;10645;52.370;13.314;2023-06-14T11:55:53;23.10;92.30
20973;DHT22;10645;52.370;13.314;2023-06-14T11:58:19;22.90;92.80
20973;DHT22;10645;52.370;13.314;2023-06-14T12:00:49;23.00;92.00
20973;DHT22;10645;52.370;13.314;2023-06-14T12:03:15;22.90;92.90
20973;DHT22;10645;52.370;13.314;2023-06-14T12:05:41;22.90;92.30
20973;DHT22;10645;52.370;13.314;2023-06-14T12:08:07;23.10;92.50
20973;DHT22;10645;52.370;13.314;2023-06-14T12:10:40;23.30;93.00
20973;DHT22;10645;52.370;13.314;2023-06-14T12:13:09;23.70;92.50
20973;DHT22;10645;52.370;13.314;2023-06-14T12:15:36;23.80;91.90
20973;DHT22;10645;52.370;13.314;2023-06-14T12:18:05;24.00;90.50
20973;DHT22;10645;52.370;13.314;2023-06-14T12:20:33;23.80;90.80
20973;DHT22;10645;52.370;13.314;2023-06-14T12:23:03;23.90;91.10
20973;DHT22;10645;52.370;13.314;2023-06-14T12:25:33;24.30;91.00
20973;DHT22;10645;52.370;13.314;2023-06-14T12:28:08;24.60;90.60
20973;DHT22;10645;52.370;13.314;2023-06-14T12:30:35;24.50;89.70
20973;DHT22;10645;52.370;13.314;2023-06-14T12:33:05;24.60;89.50
20973;DHT22;10645;52.370;13.314;2023-06-14T12:35:31;24.90;90.20
20973;DHT22;10645;52.370;13.314;2023-06-14T12:37:57;25.10;90.00
20973;DHT22;10645;52.370;13.314;2023-06-14T12:40:24;25.30;89.50
20973;DHT22;10645;52.370;13.314;2023-06-14T12:42:50;25.10;82.80
20973;DHT22;10645;52.370;13.314;2023-06-14T12:45:16;25.40;85.60
20973;DHT22;10645;52.370;13.314;2023-06-14T12:47:42;25.50;84.10
20973;DHT22;10645;52.370;13.314;2023-06-14T12:50:08;25.20;82.80
20973;DHT22;10645;52.370;13.314;2023-06-14T12:52:35;25.10;83.50
20973;DHT22;10645;52.370;13.314;2023-06-14T12:55:05;25.10;86.00
20973;DHT22;10645;52.370;13.314;2023-06-14T12:57:31;25.10;83.30
20973;DHT22;10645;52.370;13.314;2023-06-14T12:59:59;25.10;83.30
20973;DHT22;10645;52.370;13.314;2023-06-14T13:02:25;25.20;84.00
20973;DHT22;10645;52.370;13.314;2023-06-14T13:04:51;24.90;82.70
20973;DHT22;10645;52.370;13.314;2023-06-14T13:07:18;25.10;82.60
20973;DHT22;10645;52.370;13.314;2023-06-14T13:09:44;25.40;82.90
20973;DHT22;10645;52.370;13.314;2023-06-14T13:12:10;25.70;83.80
20973;DHT22;10645;52.370;13.314;2023-06-14T13:14:38;26.20;83.20
20973;DHT22;10645;52.370;13.314;2023-06-14T13:17:05;26.30;81.90
20973;DHT22;10645;52.370;13.314;2023-06-14T13:19:31;26.30;79.10
20973;DHT22;10645;52.370;13.314;2023-06-14T13:21:57;26.30;78.90
20973;DHT22;10645;52.370;13.314;2023-06-14T13:24:23;26.40;79.70
20973;DHT22;10645;52.370;13.314;2023-06-14T13:26:50;26.60;78.60
20973;DHT22;10645;52.370;13.314;2023-06-14T13:29:16;26.30;77.90
20973;DHT22;10645;52.370;13.314;2023-06-14T13:31:42;26.40;78.00
20973;DHT22;10645;52.370;13.314;2023-06-14T13:34:08;26.20;77.30
20973;DHT22;10645;52.370;13.314;2023-06-14T13:36:34;26.00;77.00
20973;DHT22;10645;52.370;13.314;2023-06-14T13:39:00;25.90;77.10
20973;DHT22;10645;52.370;13.314;2023-06-14T13:41:28;26.00;79.10
20973;DHT22;10645;52.370;13.314;2023-06-14T13:44:00;26.10;79.60
20973;DHT22;10645;52.370;13.314;2023-06-14T13:46:26;26.10;76.10
20973;DHT22;10645;52.370;13.314;2023-06-14T13:48:53;26.30;77.90
20973;DHT22;10645;52.370;13.314;2023-06-14T13:51:19;26.50;79.50
20973;DHT22;10645;52.370;13.314;2023-06-14T13:53:49;26.00;76.70
20973;DHT22;10645;52.370;13.314;2023-06-14T13:56:16;25.80;78.40
20973;DHT22;10645;52.370;13.314;2023-06-14T13:58:43;25.90;79.70
20973;DHT22;10645;52.370;13.314;2023-06-14T14:01:09;25.30;77.30
20973;DHT22;10645;52.370;13.314;2023-06-14T14:03:36;25.30;78.70
20973;DHT22;10645;52.370;13.314;2023-06-14T14:06:03;25.00;78.80
20973;DHT22;10645;52.370;13.314;2023-06-14T14:08:29;24.90;80.90
20973;DHT22;10645;52.370;13.314;2023-06-14T14:10:55;25.00;81.60
20973;DHT22;10645;52.370;13.314;2023-06-14T14:13:22;25.00;80.00
20973;DHT22;10645;52.370;13.314;2023-06-14T14:15:48;25.30;80.00
20973;DHT22;10645;52.370;13.314;2023-06-14T14:18:15;25.40;79.30
20973;DHT22;10645;52.370;13.314;2023-06-14T14:20:41;25.60;79.00
20973;DHT22;10645;52.370;13.314;2023-06-14T14:23:07;25.90;77.90
20973;DHT22;10645;52.370;13.314;2023-06-14T14:25:33;26.10;77.20
20973;DHT22;10645;52.370;13.314;2023-06-14T14:27:59;26.20;77.00
20973;DHT22;10645;52.370;13.314;2023-06-14T14:30:25;26.20;75.40
20973;DHT22;10645;52.370;13.314;2023-06-14T14:32:51;26.00;75.80
20973;DHT22;10645;52.370;13.314;2023-06-14T14:35:18;25.80;75.20
20973;DHT22;10645;52.370;13.314;2023-06-14T14:37:44;25.60;76.70
20973;DHT22;10645;52.370;13.314;2023-06-14T14:40:11;25.50;76.10
20973;DHT22;10645;52.370;13.314;2023-06-14T14:42:37;25.40;76.40
20973;DHT22;10645;52.370;13.314;2023-06-14T14:45:04;25.80;77.40
20973;DHT22;10645;52.370;13.314;2023-06-14T14:47:30;25.90;76.30
20973;DHT22;10645;52.370;13.314;2023-06-14T14:49:56;25.80;76.20
20973;DHT22;10645;52.370;13.314;2023-06-14T14:52:22;25.90;75.70
20973;DHT22;10645;52.370;13.314;2023-06-14T14:54:48;25.80;76.50
20973;DHT22;10645;52.370;13.314;2023-06-14T14:57:14;25.70;76.40
20973;DHT22;10645;52.370;13.314;2023-06-14T14:59:40;25.60;75.70
20973;DHT22;10645;52.370;13.314;2023-06-14T15:02:06;25.40;73.70
20973;DHT22;10645;52.370;13.314;2023-06-14T15:04:32;25.10;75.70
20973;DHT22;10645;52.370;13.314;2023-06-14T15:06:58;24.80;76.60
20973;DHT22;10645;52.370;13.314;2023-06-14T15:09:25;24.60;77.40
20973;DHT22;10645;52.370;13.314;2023-06-14T15:11:51;24.40;77.00
20973;DHT22;10645;52.370;13.314;2023-06-14T15:14:17;24.20;77.60
20973;DHT22;10645;52.370;13.314;2023-06-14T15:16:43;23.90;78.30
20973;DHT22;10645;52.370;13.314;2023-06-14T15:19:09;23.80;78.90
20973;DHT22;10645;52.370;13.314;2023-06-14T15:21:35;23.70;78.70
20973;DHT22;10645;52.370;13.314;2023-06-14T15:24:01;23.60;77.50
20973;DHT22;10645;52.370;13.314;2023-06-14T15:26:27;23.50;80.60